Bookmark and Share
Track history (hours):
 

Eagle Turin

Last reported at 2014-Apr-02 21:26 UTC. Time now 2014-Apr-18 08:16 UTC.
Position N 26°28' W 078°45'.
Warning: this ship's position is 15 days out of date.

Length 246 m; draft 8.5 m.

Type: Tanker. MMSI: 565770000.

NotesDate/timePositionNaut miles runAvg speedWind from/ knotsBaromVisibWave heightAir tempDewpointWater temp
2014-Apr-02 21:26N 26°28' W 078°45'1 1.1
2014-Apr-02 20:33N 26°28' W 078°46'0 0.3
2014-Apr-02 19:28N 26°28' W 078°46'0 0.2
2014-Apr-02 18:33N 26°28' W 078°46'2 0.2
2014-Apr-02 09:08N 26°30' W 078°47'0 0.0
2014-Apr-02 08:32N 26°30' W 078°47'0 0.0
2014-Apr-02 07:23N 26°30' W 078°47'0 0.0
2014-Apr-02 05:05N 26°30' W 078°47'0 0.0
2014-Apr-01 17:23N 26°30' W 078°47'0 0.0
2014-Apr-01 16:11N 26°30' W 078°47'0 0.0
2014-Apr-01 15:23N 26°30' W 078°47'0 0.0
2014-Apr-01 14:23N 26°30' W 078°47'0 0.0
2014-Apr-01 13:26N 26°30' W 078°47'0 0.0
2014-Apr-01 12:29N 26°30' W 078°47'0 0.0
2014-Apr-01 11:26N 26°30' W 078°47'0 0.0
2014-Apr-01 09:29N 26°30' W 078°47'0 0.0
2014-Apr-01 08:29N 26°30' W 078°47'0 0.0
2014-Apr-01 07:32N 26°30' W 078°47'0 0.0
2014-Apr-01 06:05N 26°30' W 078°47'0 0.0
2014-Apr-01 05:32N 26°30' W 078°47'0 0.0
2014-Apr-01 00:26N 26°30' W 078°47'0 0.0
2014-Mar-31 22:29N 26°30' W 078°47'0 0.0
2014-Mar-31 20:17N 26°30' W 078°47'0 0.0
2014-Mar-31 19:14N 26°30' W 078°47'0 0.0
2014-Mar-31 18:14N 26°30' W 078°47'0 0.0
2014-Mar-31 17:29N 26°30' W 078°47'0 0.0
2014-Mar-31 16:20N 26°30' W 078°47'0 0.0
2014-Mar-31 14:08N 26°30' W 078°47'0 0.0
2014-Mar-31 12:23N 26°30' W 078°47'0 0.0
2014-Mar-31 11:26N 26°30' W 078°47'9 0.5
2014-Mar-30 18:28N 26°25' W 078°54'1 0.6
2014-Mar-30 17:27N 26°25' W 078°55'1 0.6
2014-Mar-30 16:30N 26°25' W 078°55'1 0.6
2014-Mar-30 15:22N 26°25' W 078°56'0 0.3
2014-Mar-30 14:32N 26°25' W 078°56'2 2.2
2014-Mar-30 13:32N 26°27' W 078°54'1 0.1
2014-Mar-30 04:07N 26°27' W 078°54'1 1.0
2014-Mar-30 03:34N 26°28' W 078°54'4 3.8
2014-Mar-30 02:34N 26°31' W 078°51'1 0.6
2014-Mar-30 01:32N 26°30' W 078°52'  

Dump ship's entire track history

sailing weather and tide predictions

Eagle Turin — 9VMG6 — position and weather